College Park, MD (20740)

6:38 PM EDT on August 29, 2015 (GMT -0400)
Hollywood | | Change Station
CLOSE
Current Station
Personal Weather Station
Location: College Park, MD
Elevation: 105 ft
Nearby Weather Stations

Elev 105 ft 39.01 °N, 76.92 °W | Updated 13 seconds ago

Scattered Clouds
Scattered Clouds
86.3 °F
Feels Like 89 °F
N
0.0
Wind Variable Wind from South
Gusts 0.0 mph

Today
High -- | Low -- °F
--% Chance of Precip.
Yesterday
High -- | Low -- °F
Precip. -- in
6:33 AM 7:43 PM
Full, 100% visible
Pressure 30.09 in
Visibility 10.0 miles
Clouds Scattered Clouds 7000 ft
Heat Index 89 °F
Dew Point 67 °F
Humidity 53%
Rainfall 0.00 in
Snow Depth Not available.
UV 1 out of 12
Pollen 10.30 out of 12
Air Quality Not available.
Flu Activity Not available.
METAR KCGS 292225Z AUTO 19005KT 10SM SCT070 30/15 A3009 RMK AO1
Pressure 30.09 in
Visibility 10.0 miles
Clouds Scattered Clouds 7000 ft
Heat Index 89 °F
Dew Point 67 °F
Humidity 53%
Rainfall 0.00 in
Snow Depth Not available.
UV 1 out of 12
Pollen 10.30 out of 12
Air Quality Not available.
Flu Activity Not available.
METAR KCGS 292225Z AUTO 19005KT 10SM SCT070 30/15 A3009 RMK AO1

10-Day Weather Forecast

×

Almanac

Astronomy

Aug. 29, 2015 Rise Set
Actual Time
Civil Twilight
Nautical Twilight
Astronomical Twilight
Moon
Length of Visible Light
Length of Day
Tomorrow will be .
, % of the Moon is Illuminated

Today's Extremes

State Highs State Lows

Community

WunderPhotos

Upload Photos

1,850,775 photos uploaded!

WunderBlogs® & News

Nearby

Air Quality

  Air Quality AQ Index Pollutant
Not available.

Snow Depth

Station Depth Elevation

Earthquake Activity

City Distance Mag. Time & Date
Minimum magnitude displayed is 2.5.

Coastal Water Temperatures

Place Temperature

Stations

Nearby Weather Stations

Station Location Temp. Windchill Dew Point Humidity Wind Precip. Elev Updated Type